sensor_id;sensor_type;location;lat;lon;timestamp;temperature;humidity
6879;DHT22;3478;51.462;7.338;2024-03-08T00:02:06;3.50;99.90
6879;DHT22;3478;51.462;7.338;2024-03-08T00:07:08;3.60;99.90
6879;DHT22;3478;51.462;7.338;2024-03-08T00:12:09;3.60;99.90
6879;DHT22;3478;51.462;7.338;2024-03-08T00:17:13;3.60;99.90
6879;DHT22;3478;51.462;7.338;2024-03-08T00:22:16;3.60;99.90
6879;DHT22;3478;51.462;7.338;2024-03-08T00:27:18;3.50;99.90
6879;DHT22;3478;51.462;7.338;2024-03-08T00:32:22;3.40;99.90
6879;DHT22;3478;51.462;7.338;2024-03-08T00:37:25;3.40;99.90
6879;DHT22;3478;51.462;7.338;2024-03-08T00:42:27;3.40;99.90
6879;DHT22;3478;51.462;7.338;2024-03-08T00:47:30;3.30;99.90
6879;DHT22;3478;51.462;7.338;2024-03-08T00:52:32;3.30;99.90
6879;DHT22;3478;51.462;7.338;2024-03-08T00:57:35;3.30;99.90
6879;DHT22;3478;51.462;7.338;2024-03-08T01:02:38;3.20;99.90
6879;DHT22;3478;51.462;7.338;2024-03-08T01:07:40;3.20;99.90
6879;DHT22;3478;51.462;7.338;2024-03-08T01:12:42;3.20;99.90
6879;DHT22;3478;51.462;7.338;2024-03-08T01:17:46;3.20;99.90
6879;DHT22;3478;51.462;7.338;2024-03-08T01:22:48;3.10;99.90
6879;DHT22;3478;51.462;7.338;2024-03-08T01:27:50;3.10;99.90
6879;DHT22;3478;51.462;7.338;2024-03-08T01:32:55;3.10;99.90
6879;DHT22;3478;51.462;7.338;2024-03-08T01:37:57;3.10;99.90
6879;DHT22;3478;51.462;7.338;2024-03-08T01:43:20;3.00;99.90
6879;DHT22;3478;51.462;7.338;2024-03-08T01:48:23;3.00;99.90
6879;DHT22;3478;51.462;7.338;2024-03-08T01:53:26;3.10;99.90
6879;DHT22;3478;51.462;7.338;2024-03-08T01:58:29;3.00;99.90
6879;DHT22;3478;51.462;7.338;2024-03-08T02:03:34;3.00;99.90
6879;DHT22;3478;51.462;7.338;2024-03-08T02:08:37;3.00;99.90
6879;DHT22;3478;51.462;7.338;2024-03-08T02:13:39;3.00;99.90
6879;DHT22;3478;51.462;7.338;2024-03-08T02:18:42;3.00;99.90
6879;DHT22;3478;51.462;7.338;2024-03-08T02:23:45;2.90;99.90
6879;DHT22;3478;51.462;7.338;2024-03-08T02:28:47;2.80;99.90
6879;DHT22;3478;51.462;7.338;2024-03-08T02:33:49;2.80;99.90
6879;DHT22;3478;51.462;7.338;2024-03-08T02:38:53;2.80;99.90
6879;DHT22;3478;51.462;7.338;2024-03-08T02:43:56;2.80;99.90
6879;DHT22;3478;51.462;7.338;2024-03-08T02:48:57;2.80;99.90
6879;DHT22;3478;51.462;7.338;2024-03-08T02:54:01;2.70;99.90
6879;DHT22;3478;51.462;7.338;2024-03-08T02:59:04;2.70;99.90
6879;DHT22;3478;51.462;7.338;2024-03-08T03:04:06;2.80;99.90
6879;DHT22;3478;51.462;7.338;2024-03-08T03:09:09;2.70;99.90
6879;DHT22;3478;51.462;7.338;2024-03-08T03:14:11;2.70;99.90
6879;DHT22;3478;51.462;7.338;2024-03-08T03:19:13;2.70;99.90
6879;DHT22;3478;51.462;7.338;2024-03-08T03:24:17;2.60;99.90
6879;DHT22;3478;51.462;7.338;2024-03-08T03:29:18;2.50;99.90
6879;DHT22;3478;51.462;7.338;2024-03-08T03:34:20;2.50;99.90
6879;DHT22;3478;51.462;7.338;2024-03-08T03:39:24;2.50;99.90
6879;DHT22;3478;51.462;7.338;2024-03-08T03:44:27;2.50;99.90
6879;DHT22;3478;51.462;7.338;2024-03-08T03:49:28;2.60;99.90
6879;DHT22;3478;51.462;7.338;2024-03-08T03:54:32;2.60;99.90
6879;DHT22;3478;51.462;7.338;2024-03-08T03:59:34;2.50;99.90
6879;DHT22;3478;51.462;7.338;2024-03-08T04:04:36;2.50;99.90
6879;DHT22;3478;51.462;7.338;2024-03-08T04:09:39;2.40;99.90
6879;DHT22;3478;51.462;7.338;2024-03-08T04:14:42;2.40;99.90
6879;DHT22;3478;51.462;7.338;2024-03-08T04:19:44;2.40;99.90
6879;DHT22;3478;51.462;7.338;2024-03-08T04:24:50;2.30;99.90
6879;DHT22;3478;51.462;7.338;2024-03-08T04:29:52;2.30;99.90
6879;DHT22;3478;51.462;7.338;2024-03-08T04:34:54;2.30;99.90
6879;DHT22;3478;51.462;7.338;2024-03-08T04:39:57;2.30;99.90
6879;DHT22;3478;51.462;7.338;2024-03-08T04:44:59;2.30;99.90
6879;DHT22;3478;51.462;7.338;2024-03-08T04:50:01;2.20;99.90
6879;DHT22;3478;51.462;7.338;2024-03-08T04:55:05;2.10;99.90
6879;DHT22;3478;51.462;7.338;2024-03-08T05:00:08;2.00;99.90
6879;DHT22;3478;51.462;7.338;2024-03-08T05:05:11;2.00;99.90
6879;DHT22;3478;51.462;7.338;2024-03-08T05:10:15;1.80;99.90
6879;DHT22;3478;51.462;7.338;2024-03-08T05:15:18;1.70;99.90
6879;DHT22;3478;51.462;7.338;2024-03-08T05:20:21;1.70;99.90
6879;DHT22;3478;51.462;7.338;2024-03-08T05:25:24;1.60;99.90
6879;DHT22;3478;51.462;7.338;2024-03-08T05:30:27;1.60;99.90
6879;DHT22;3478;51.462;7.338;2024-03-08T05:35:29;1.60;99.90
6879;DHT22;3478;51.462;7.338;2024-03-08T05:40:34;1.60;99.90
6879;DHT22;3478;51.462;7.338;2024-03-08T05:45:36;1.60;99.90
6879;DHT22;3478;51.462;7.338;2024-03-08T05:50:38;1.60;99.90
6879;DHT22;3478;51.462;7.338;2024-03-08T05:55:41;1.50;99.90
6879;DHT22;3478;51.462;7.338;2024-03-08T06:00:44;1.50;99.90
6879;DHT22;3478;51.462;7.338;2024-03-08T06:05:47;1.50;99.90
6879;DHT22;3478;51.462;7.338;2024-03-08T06:10:50;1.50;99.90
6879;DHT22;3478;51.462;7.338;2024-03-08T06:15:53;1.50;99.90
6879;DHT22;3478;51.462;7.338;2024-03-08T06:20:55;1.50;99.90
6879;DHT22;3478;51.462;7.338;2024-03-08T06:25:58;1.50;99.90
6879;DHT22;3478;51.462;7.338;2024-03-08T06:31:01;1.60;99.90
6879;DHT22;3478;51.462;7.338;2024-03-08T06:36:03;1.60;99.90
6879;DHT22;3478;51.462;7.338;2024-03-08T06:41:07;1.70;99.90
6879;DHT22;3478;51.462;7.338;2024-03-08T06:46:09;1.90;99.90
6879;DHT22;3478;51.462;7.338;2024-03-08T06:51:13;2.00;99.90
6879;DHT22;3478;51.462;7.338;2024-03-08T06:56:18;2.10;99.90
6879;DHT22;3478;51.462;7.338;2024-03-08T07:01:20;2.30;99.90
6879;DHT22;3478;51.462;7.338;2024-03-08T07:06:22;2.50;99.90
6879;DHT22;3478;51.462;7.338;2024-03-08T07:11:25;2.50;99.90
6879;DHT22;3478;51.462;7.338;2024-03-08T07:16:27;2.70;99.90
6879;DHT22;3478;51.462;7.338;2024-03-08T07:21:29;2.70;99.90
6879;DHT22;3478;51.462;7.338;2024-03-08T07:26:32;2.80;99.90
6879;DHT22;3478;51.462;7.338;2024-03-08T07:31:34;3.00;99.90
6879;DHT22;3478;51.462;7.338;2024-03-08T07:36:50;3.00;99.90
6879;DHT22;3478;51.462;7.338;2024-03-08T07:41:54;3.20;99.90
6879;DHT22;3478;51.462;7.338;2024-03-08T07:46:55;3.50;99.90
6879;DHT22;3478;51.462;7.338;2024-03-08T07:51:57;3.70;99.90
6879;DHT22;3478;51.462;7.338;2024-03-08T07:57:01;3.90;99.90
6879;DHT22;3478;51.462;7.338;2024-03-08T08:02:04;4.10;99.90
6879;DHT22;3478;51.462;7.338;2024-03-08T08:07:06;4.10;99.90
6879;DHT22;3478;51.462;7.338;2024-03-08T08:12:10;4.30;99.90
6879;DHT22;3478;51.462;7.338;2024-03-08T08:17:12;4.50;99.90
6879;DHT22;3478;51.462;7.338;2024-03-08T08:22:14;4.70;99.90
6879;DHT22;3478;51.462;7.338;2024-03-08T08:27:18;4.80;99.90
6879;DHT22;3478;51.462;7.338;2024-03-08T08:32:19;4.90;99.90
6879;DHT22;3478;51.462;7.338;2024-03-08T08:37:21;5.00;99.90
6879;DHT22;3478;51.462;7.338;2024-03-08T08:42:25;5.20;99.90
6879;DHT22;3478;51.462;7.338;2024-03-08T08:47:29;5.50;99.90
6879;DHT22;3478;51.462;7.338;2024-03-08T08:52:31;5.70;99.90
6879;DHT22;3478;51.462;7.338;2024-03-08T08:57:34;5.90;99.90
6879;DHT22;3478;51.462;7.338;2024-03-08T09:02:36;6.10;99.90
6879;DHT22;3478;51.462;7.338;2024-03-08T09:07:39;6.40;99.90
6879;DHT22;3478;51.462;7.338;2024-03-08T09:12:42;6.50;99.90
6879;DHT22;3478;51.462;7.338;2024-03-08T09:17:44;6.50;99.90
6879;DHT22;3478;51.462;7.338;2024-03-08T09:22:46;6.70;99.90
6879;DHT22;3478;51.462;7.338;2024-03-08T09:27:49;6.90;99.90
6879;DHT22;3478;51.462;7.338;2024-03-08T09:32:51;7.00;99.90
6879;DHT22;3478;51.462;7.338;2024-03-08T09:37:53;7.30;99.90
6879;DHT22;3478;51.462;7.338;2024-03-08T09:42:56;7.30;99.90
6879;DHT22;3478;51.462;7.338;2024-03-08T09:47:58;7.60;99.90
6879;DHT22;3478;51.462;7.338;2024-03-08T09:53:00;7.70;99.90
6879;DHT22;3478;51.462;7.338;2024-03-08T09:58:06;7.90;99.90
6879;DHT22;3478;51.462;7.338;2024-03-08T10:03:37;8.00;99.90
6879;DHT22;3478;51.462;7.338;2024-03-08T10:08:39;8.30;99.90
6879;DHT22;3478;51.462;7.338;2024-03-08T10:13:42;8.60;99.90
6879;DHT22;3478;51.462;7.338;2024-03-08T10:18:46;8.40;99.90
6879;DHT22;3478;51.462;7.338;2024-03-08T10:23:48;8.40;99.80
6879;DHT22;3478;51.462;7.338;2024-03-08T10:28:52;8.70;99.90
6879;DHT22;3478;51.462;7.338;2024-03-08T10:33:54;8.90;99.60
6879;DHT22;3478;51.462;7.338;2024-03-08T10:38:56;8.90;99.70
6879;DHT22;3478;51.462;7.338;2024-03-08T10:44:10;9.20;98.30
6879;DHT22;3478;51.462;7.338;2024-03-08T10:49:23;9.50;98.70
6879;DHT22;3478;51.462;7.338;2024-03-08T10:54:27;9.80;98.80
6879;DHT22;3478;51.462;7.338;2024-03-08T10:59:31;10.30;97.70
6879;DHT22;3478;51.462;7.338;2024-03-08T11:04:37;10.60;97.00
6879;DHT22;3478;51.462;7.338;2024-03-08T11:09:39;10.70;96.00
6879;DHT22;3478;51.462;7.338;2024-03-08T11:14:47;10.90;95.10
6879;DHT22;3478;51.462;7.338;2024-03-08T11:19:50;11.70;95.90
6879;DHT22;3478;51.462;7.338;2024-03-08T11:24:53;12.60;92.60
6879;DHT22;3478;51.462;7.338;2024-03-08T11:30:03;12.90;91.10
6879;DHT22;3478;51.462;7.338;2024-03-08T11:35:18;13.60;90.00
6879;DHT22;3478;51.462;7.338;2024-03-08T11:40:21;14.40;87.60
6879;DHT22;3478;51.462;7.338;2024-03-08T11:45:24;14.70;84.30
6879;DHT22;3478;51.462;7.338;2024-03-08T11:50:26;14.60;81.10
6879;DHT22;3478;51.462;7.338;2024-03-08T11:55:28;16.20;79.80
6879;DHT22;3478;51.462;7.338;2024-03-08T12:00:32;16.80;77.00
6879;DHT22;3478;51.462;7.338;2024-03-08T12:05:38;17.10;68.50
6879;DHT22;3478;51.462;7.338;2024-03-08T12:10:40;16.60;65.70
6879;DHT22;3478;51.462;7.338;2024-03-08T12:15:45;17.40;62.40
6879;DHT22;3478;51.462;7.338;2024-03-08T12:20:47;18.00;56.00
6879;DHT22;3478;51.462;7.338;2024-03-08T12:25:50;18.90;53.50
6879;DHT22;3478;51.462;7.338;2024-03-08T12:30:54;18.60;52.60
6879;DHT22;3478;51.462;7.338;2024-03-08T12:35:58;18.90;52.30
6879;DHT22;3478;51.462;7.338;2024-03-08T12:41:01;18.20;49.90
6879;DHT22;3478;51.462;7.338;2024-03-08T12:46:04;18.50;50.80
6879;DHT22;3478;51.462;7.338;2024-03-08T12:51:09;18.30;51.00
6879;DHT22;3478;51.462;7.338;2024-03-08T12:56:11;17.90;48.90
6879;DHT22;3478;51.462;7.338;2024-03-08T13:01:14;18.80;47.50
6879;DHT22;3478;51.462;7.338;2024-03-08T13:06:18;19.30;48.60
6879;DHT22;3478;51.462;7.338;2024-03-08T13:11:22;18.70;47.10
6879;DHT22;3478;51.462;7.338;2024-03-08T13:16:26;19.00;48.90
6879;DHT22;3478;51.462;7.338;2024-03-08T13:21:39;19.50;45.90
6879;DHT22;3478;51.462;7.338;2024-03-08T13:26:49;20.10;47.20
6879;DHT22;3478;51.462;7.338;2024-03-08T13:31:53;20.10;44.40
6879;DHT22;3478;51.462;7.338;2024-03-08T13:36:57;20.10;44.90
6879;DHT22;3478;51.462;7.338;2024-03-08T13:42:01;20.40;44.10
6879;DHT22;3478;51.462;7.338;2024-03-08T13:47:04;21.10;44.20
6879;DHT22;3478;51.462;7.338;2024-03-08T13:52:07;19.90;43.10
6879;DHT22;3478;51.462;7.338;2024-03-08T13:57:10;20.30;44.20
6879;DHT22;3478;51.462;7.338;2024-03-08T14:02:13;20.10;44.10
6879;DHT22;3478;51.462;7.338;2024-03-08T14:07:15;20.40;43.50
6879;DHT22;3478;51.462;7.338;2024-03-08T14:12:17;20.30;44.50
6879;DHT22;3478;51.462;7.338;2024-03-08T14:17:21;20.90;43.70
6879;DHT22;3478;51.462;7.338;2024-03-08T14:22:24;20.40;42.00
6879;DHT22;3478;51.462;7.338;2024-03-08T14:27:25;19.80;42.70
6879;DHT22;3478;51.462;7.338;2024-03-08T14:32:30;19.70;43.40
6879;DHT22;3478;51.462;7.338;2024-03-08T14:37:33;20.10;42.00
6879;DHT22;3478;51.462;7.338;2024-03-08T14:42:35;19.40;43.70
6879;DHT22;3478;51.462;7.338;2024-03-08T14:47:38;20.10;44.80
6879;DHT22;3478;51.462;7.338;2024-03-08T14:52:40;20.30;43.30
6879;DHT22;3478;51.462;7.338;2024-03-08T14:57:43;20.90;42.70
6879;DHT22;3478;51.462;7.338;2024-03-08T15:02:47;20.80;43.40
6879;DHT22;3478;51.462;7.338;2024-03-08T15:07:49;20.00;43.50
6879;DHT22;3478;51.462;7.338;2024-03-08T15:12:51;20.00;42.10
6879;DHT22;3478;51.462;7.338;2024-03-08T15:17:57;19.60;40.90
6879;DHT22;3478;51.462;7.338;2024-03-08T15:23:04;20.10;43.10
6879;DHT22;3478;51.462;7.338;2024-03-08T15:28:07;20.20;42.10
6879;DHT22;3478;51.462;7.338;2024-03-08T15:33:16;20.20;42.70
6879;DHT22;3478;51.462;7.338;2024-03-08T15:38:24;19.80;42.60
6879;DHT22;3478;51.462;7.338;2024-03-08T15:43:28;19.30;42.90
6879;DHT22;3478;51.462;7.338;2024-03-08T15:48:31;18.90;43.80
6879;DHT22;3478;51.462;7.338;2024-03-08T15:53:33;19.00;43.80
6879;DHT22;3478;51.462;7.338;2024-03-08T15:58:36;18.60;44.80
6879;DHT22;3478;51.462;7.338;2024-03-08T16:03:39;18.50;45.30
6879;DHT22;3478;51.462;7.338;2024-03-08T16:08:42;18.40;44.10
6879;DHT22;3478;51.462;7.338;2024-03-08T16:13:44;17.70;43.70
6879;DHT22;3478;51.462;7.338;2024-03-08T16:18:47;16.60;46.40
6879;DHT22;3478;51.462;7.338;2024-03-08T16:23:50;15.30;47.50
6879;DHT22;3478;51.462;7.338;2024-03-08T16:28:54;14.20;49.10
6879;DHT22;3478;51.462;7.338;2024-03-08T16:33:58;13.90;50.40
6879;DHT22;3478;51.462;7.338;2024-03-08T16:39:01;13.50;50.20
6879;DHT22;3478;51.462;7.338;2024-03-08T16:44:05;12.90;51.30
6879;DHT22;3478;51.462;7.338;2024-03-08T16:49:08;12.40;52.10
6879;DHT22;3478;51.462;7.338;2024-03-08T16:54:11;11.90;52.10
6879;DHT22;3478;51.462;7.338;2024-03-08T16:59:13;11.80;54.70
6879;DHT22;3478;51.462;7.338;2024-03-08T17:04:18;11.60;54.30
6879;DHT22;3478;51.462;7.338;2024-03-08T17:09:20;11.40;54.70
6879;DHT22;3478;51.462;7.338;2024-03-08T17:14:22;11.30;55.50
6879;DHT22;3478;51.462;7.338;2024-03-08T17:19:26;11.10;55.20
6879;DHT22;3478;51.462;7.338;2024-03-08T17:24:28;10.90;56.00
6879;DHT22;3478;51.462;7.338;2024-03-08T17:29:30;10.70;55.60
6879;DHT22;3478;51.462;7.338;2024-03-08T17:34:33;10.60;55.90
6879;DHT22;3478;51.462;7.338;2024-03-08T17:39:37;10.40;56.50
6879;DHT22;3478;51.462;7.338;2024-03-08T17:44:40;10.30;57.40
6879;DHT22;3478;51.462;7.338;2024-03-08T17:49:43;10.10;58.50
6879;DHT22;3478;51.462;7.338;2024-03-08T17:54:46;9.90;59.10
6879;DHT22;3478;51.462;7.338;2024-03-08T17:59:50;9.90;59.50
6879;DHT22;3478;51.462;7.338;2024-03-08T18:04:54;9.80;60.20
6879;DHT22;3478;51.462;7.338;2024-03-08T18:09:57;9.60;61.30
6879;DHT22;3478;51.462;7.338;2024-03-08T18:14:59;9.50;61.90
6879;DHT22;3478;51.462;7.338;2024-03-08T18:20:03;9.50;62.10
6879;DHT22;3478;51.462;7.338;2024-03-08T18:25:06;9.20;64.20
6879;DHT22;3478;51.462;7.338;2024-03-08T18:30:13;9.10;64.80
6879;DHT22;3478;51.462;7.338;2024-03-08T18:35:19;8.90;66.10
6879;DHT22;3478;51.462;7.338;2024-03-08T18:40:22;8.90;66.60
6879;DHT22;3478;51.462;7.338;2024-03-08T18:45:24;8.80;67.50
6879;DHT22;3478;51.462;7.338;2024-03-08T18:50:28;8.70;68.00
6879;DHT22;3478;51.462;7.338;2024-03-08T18:55:31;8.60;68.80
6879;DHT22;3478;51.462;7.338;2024-03-08T19:00:33;8.50;69.40
6879;DHT22;3478;51.462;7.338;2024-03-08T19:05:39;8.40;70.60
6879;DHT22;3478;51.462;7.338;2024-03-08T19:10:42;8.30;71.00
6879;DHT22;3478;51.462;7.338;2024-03-08T19:15:43;8.20;72.10
6879;DHT22;3478;51.462;7.338;2024-03-08T19:20:47;8.00;74.10
6879;DHT22;3478;51.462;7.338;2024-03-08T19:25:49;8.00;75.10
6879;DHT22;3478;51.462;7.338;2024-03-08T19:30:53;7.90;76.60
6879;DHT22;3478;51.462;7.338;2024-03-08T19:35:57;7.90;77.40
6879;DHT22;3478;51.462;7.338;2024-03-08T19:41:00;7.80;78.10
6879;DHT22;3478;51.462;7.338;2024-03-08T19:46:03;7.80;78.80
6879;DHT22;3478;51.462;7.338;2024-03-08T19:51:11;7.70;79.60
6879;DHT22;3478;51.462;7.338;2024-03-08T19:56:17;7.70;81.10
6879;DHT22;3478;51.462;7.338;2024-03-08T20:01:22;7.50;82.20
6879;DHT22;3478;51.462;7.338;2024-03-08T20:06:26;7.40;83.30
6879;DHT22;3478;51.462;7.338;2024-03-08T20:11:28;7.40;84.70
6879;DHT22;3478;51.462;7.338;2024-03-08T20:16:29;7.30;85.70
6879;DHT22;3478;51.462;7.338;2024-03-08T20:21:33;7.20;87.50
6879;DHT22;3478;51.462;7.338;2024-03-08T20:26:35;7.10;88.50
6879;DHT22;3478;51.462;7.338;2024-03-08T20:31:38;7.10;89.70
6879;DHT22;3478;51.462;7.338;2024-03-08T20:36:41;7.00;90.30
6879;DHT22;3478;51.462;7.338;2024-03-08T20:41:43;6.90;90.70
6879;DHT22;3478;51.462;7.338;2024-03-08T20:46:45;6.90;91.10
6879;DHT22;3478;51.462;7.338;2024-03-08T20:51:49;6.80;91.60
6879;DHT22;3478;51.462;7.338;2024-03-08T20:56:51;6.80;92.50
6879;DHT22;3478;51.462;7.338;2024-03-08T21:01:53;6.70;92.60
6879;DHT22;3478;51.462;7.338;2024-03-08T21:06:56;6.60;93.00
6879;DHT22;3478;51.462;7.338;2024-03-08T21:11:59;6.70;93.40
6879;DHT22;3478;51.462;7.338;2024-03-08T21:17:02;6.60;93.60
6879;DHT22;3478;51.462;7.338;2024-03-08T21:22:08;6.60;94.00
6879;DHT22;3478;51.462;7.338;2024-03-08T21:27:09;6.50;94.40
6879;DHT22;3478;51.462;7.338;2024-03-08T21:32:11;6.40;94.90
6879;DHT22;3478;51.462;7.338;2024-03-08T21:37:14;6.40;95.20
6879;DHT22;3478;51.462;7.338;2024-03-08T21:42:18;6.40;95.50
6879;DHT22;3478;51.462;7.338;2024-03-08T21:47:21;6.30;96.00
6879;DHT22;3478;51.462;7.338;2024-03-08T21:52:24;6.20;96.30
6879;DHT22;3478;51.462;7.338;2024-03-08T21:57:27;6.20;96.70
6879;DHT22;3478;51.462;7.338;2024-03-08T22:02:30;6.10;97.20
6879;DHT22;3478;51.462;7.338;2024-03-08T22:07:33;6.00;97.60
6879;DHT22;3478;51.462;7.338;2024-03-08T22:12:36;6.00;97.90
6879;DHT22;3478;51.462;7.338;2024-03-08T22:17:39;5.80;98.70
6879;DHT22;3478;51.462;7.338;2024-03-08T22:22:43;5.70;99.70
6879;DHT22;3478;51.462;7.338;2024-03-08T22:27:45;5.70;99.90
6879;DHT22;3478;51.462;7.338;2024-03-08T22:32:48;5.70;99.90
6879;DHT22;3478;51.462;7.338;2024-03-08T22:37:52;5.60;99.90
6879;DHT22;3478;51.462;7.338;2024-03-08T22:42:54;5.50;99.90
6879;DHT22;3478;51.462;7.338;2024-03-08T22:47:56;5.40;99.90
6879;DHT22;3478;51.462;7.338;2024-03-08T22:53:01;5.40;99.90
6879;DHT22;3478;51.462;7.338;2024-03-08T22:58:03;5.40;99.90
6879;DHT22;3478;51.462;7.338;2024-03-08T23:03:05;5.50;99.90
6879;DHT22;3478;51.462;7.338;2024-03-08T23:08:12;5.40;99.90
6879;DHT22;3478;51.462;7.338;2024-03-08T23:13:14;5.40;99.90
6879;DHT22;3478;51.462;7.338;2024-03-08T23:18:16;5.30;99.90
6879;DHT22;3478;51.462;7.338;2024-03-08T23:23:22;5.30;99.90
6879;DHT22;3478;51.462;7.338;2024-03-08T23:28:25;5.20;99.90
6879;DHT22;3478;51.462;7.338;2024-03-08T23:33:29;5.20;99.90
6879;DHT22;3478;51.462;7.338;2024-03-08T23:38:33;5.20;99.90
6879;DHT22;3478;51.462;7.338;2024-03-08T23:43:35;5.20;99.90
6879;DHT22;3478;51.462;7.338;2024-03-08T23:48:37;5.20;99.90
6879;DHT22;3478;51.462;7.338;2024-03-08T23:53:41;5.20;99.90
6879;DHT22;3478;51.462;7.338;2024-03-08T23:58:43;5.10;99.90
